createdAt,value
2022-10-24T00:00:40.570Z,19.92
2022-10-24T00:04:40.577Z,23.55
2022-10-24T00:08:39.610Z,24.58
2022-10-24T00:12:40.980Z,20.37
2022-10-24T00:16:40.456Z,26
2022-10-24T00:20:40.481Z,23.2
2022-10-24T00:24:39.377Z,22.15
2022-10-24T00:28:40.861Z,24.15
2022-10-24T00:32:40.424Z,27.7
2022-10-24T00:36:40.452Z,27.17
2022-10-24T00:40:40.681Z,25.37
2022-10-24T00:44:40.443Z,29.12
2022-10-24T00:48:40.897Z,34.42
2022-10-24T00:52:41.214Z,32.13
2022-10-24T00:56:40.475Z,21.25
2022-10-24T01:00:40.515Z,32.88
2022-10-24T01:04:40.513Z,25.17
2022-10-24T01:08:40.533Z,26
2022-10-24T01:12:40.775Z,33.6
2022-10-24T01:16:40.898Z,35.45
2022-10-24T01:20:40.494Z,31.6
2022-10-24T01:24:40.792Z,30.33
2022-10-24T01:28:40.415Z,24.77
2022-10-24T01:32:40.417Z,34.92
2022-10-24T01:36:40.561Z,30.9
2022-10-24T01:40:40.422Z,34.78
2022-10-24T01:44:40.564Z,30.73
2022-10-24T01:48:40.428Z,32.97
2022-10-24T01:52:40.415Z,30.52
2022-10-24T01:56:40.628Z,28.25
2022-10-24T02:00:40.638Z,33.08
2022-10-24T02:04:40.878Z,30.02
2022-10-24T02:08:40.468Z,27.67
2022-10-24T02:12:40.481Z,23.85
2022-10-24T02:16:40.653Z,27.9
2022-10-24T02:20:39.577Z,28.85
2022-10-24T02:24:40.786Z,30
2022-10-24T02:28:40.468Z,23.8
2022-10-24T02:32:40.442Z,29.48
2022-10-24T02:36:40.574Z,26.92
2022-10-24T02:40:41.106Z,32.83
2022-10-24T02:44:40.027Z,28.33
2022-10-24T02:48:41.128Z,27.13
2022-10-24T02:52:40.508Z,36.13
2022-10-24T02:56:40.606Z,26.75
2022-10-24T03:00:41.254Z,31.67
2022-10-24T03:04:40.483Z,25.67
2022-10-24T03:08:40.411Z,24.4
2022-10-24T03:12:40.433Z,26.42
2022-10-24T03:16:40.477Z,28.12
2022-10-24T03:20:40.423Z,26.17
2022-10-24T03:24:44.367Z,30
2022-10-24T03:28:40.427Z,31.48
2022-10-24T03:32:40.999Z,31.25
2022-10-24T03:36:40.535Z,28.7
2022-10-24T03:40:41.045Z,28.62
2022-10-24T03:44:40.421Z,41.53
2022-10-24T03:48:40.432Z,32.67
2022-10-24T03:52:40.655Z,33.17
2022-10-24T03:56:40.230Z,39.3
2022-10-24T04:00:40.717Z,31.23
2022-10-24T04:04:40.602Z,38.1
2022-10-24T04:08:40.973Z,32.7
2022-10-24T04:12:40.674Z,41.47
2022-10-24T04:16:40.591Z,45.85
2022-10-24T04:20:40.566Z,40.38
2022-10-24T04:24:40.946Z,34.9
2022-10-24T04:28:41.163Z,39.97
2022-10-24T04:32:40.454Z,38.97
2022-10-24T04:36:40.402Z,34.85
2022-10-24T04:40:40.706Z,43.95
2022-10-24T04:44:39.709Z,44.08
2022-10-24T04:48:40.944Z,38.4
2022-10-24T04:52:40.434Z,40.72
2022-10-24T04:56:40.619Z,44.67
2022-10-24T05:00:40.490Z,34.4
2022-10-24T05:04:41.272Z,37.53
2022-10-24T05:08:40.454Z,38.15
2022-10-24T05:12:39.626Z,35.17
2022-10-24T05:16:40.516Z,39.38
2022-10-24T05:24:40.409Z,41.47
2022-10-24T05:28:40.425Z,47.4
2022-10-24T05:32:40.795Z,37.65
2022-10-24T05:36:40.786Z,43.75
2022-10-24T05:40:40.900Z,37.58
2022-10-24T05:44:40.415Z,35.13
2022-10-24T05:48:40.573Z,36.33
2022-10-24T05:52:43.248Z,37.4
2022-10-24T05:56:40.612Z,42.03
2022-10-24T06:00:40.396Z,42.6
2022-10-24T06:04:40.417Z,30.42
2022-10-24T06:08:40.721Z,42.85
2022-10-24T06:12:39.815Z,37.35
2022-10-24T06:16:40.858Z,48.4
2022-10-24T06:20:40.788Z,48.1
2022-10-24T06:24:40.433Z,38.7
2022-10-24T06:28:40.487Z,42.1
2022-10-24T06:32:43.795Z,37.45
2022-10-24T06:40:40.808Z,50.5
2022-10-24T06:44:40.450Z,30.92
2022-10-24T06:48:40.515Z,30.08
2022-10-24T06:52:40.294Z,21.98
2022-10-24T06:56:40.449Z,17.25
2022-10-24T07:00:40.385Z,20.5
2022-10-24T07:04:40.443Z,17.9
2022-10-24T07:08:40.635Z,17.08
2022-10-24T07:12:40.474Z,25
2022-10-24T07:16:40.600Z,25.75
2022-10-24T07:20:40.522Z,19.42
2022-10-24T07:24:40.296Z,17.87
2022-10-24T07:28:40.823Z,16.27
2022-10-24T07:32:40.155Z,10.85
2022-10-24T07:36:43.877Z,16
2022-10-24T07:40:40.841Z,14.8
2022-10-24T07:44:40.313Z,23.5
2022-10-24T07:48:40.316Z,14.35
2022-10-24T07:52:40.700Z,14.43
2022-10-24T07:56:40.828Z,18.52
2022-10-24T08:00:45.045Z,13.75
2022-10-24T08:04:40.426Z,21.55
2022-10-24T08:08:41.059Z,10.25
2022-10-24T08:12:41.125Z,18
2022-10-24T08:16:40.444Z,16.2
2022-10-24T08:20:40.528Z,9.13
2022-10-24T08:24:40.963Z,7.32
2022-10-24T08:28:40.461Z,12.45
2022-10-24T08:32:40.502Z,11.1
2022-10-24T08:36:40.536Z,21.7
2022-10-24T08:40:40.532Z,11.95
2022-10-24T08:44:41.115Z,14.52
2022-10-24T08:48:40.375Z,10.35
2022-10-24T08:52:39.978Z,12.23
2022-10-24T08:56:40.535Z,11.15
2022-10-24T09:00:40.490Z,13.9
2022-10-24T09:04:40.685Z,10.6
2022-10-24T09:08:40.480Z,12.55
2022-10-24T09:12:41.005Z,11.98
2022-10-24T09:16:40.518Z,18.83
2022-10-24T09:20:41.294Z,9.98
2022-10-24T09:24:40.797Z,13.98
2022-10-24T09:28:40.696Z,16.15
2022-10-24T09:32:40.788Z,12.05
2022-10-24T09:36:40.827Z,14.2
2022-10-24T09:40:40.619Z,12.32
2022-10-24T09:44:40.584Z,15.77
2022-10-24T09:48:41.155Z,11.15
2022-10-24T09:52:40.589Z,15.88
2022-10-24T09:56:40.529Z,10.38
2022-10-24T10:00:40.578Z,13.75
2022-10-24T10:04:41.019Z,16.27
2022-10-24T10:08:40.520Z,12.2
2022-10-24T10:12:40.654Z,12.37
2022-10-24T10:16:40.544Z,17.12
2022-10-24T10:20:39.420Z,13.4
2022-10-24T10:24:40.870Z,12.48
2022-10-24T10:28:40.773Z,7.65
2022-10-24T10:32:40.463Z,15.35
2022-10-24T10:36:39.613Z,13.18
2022-10-24T10:40:40.596Z,15.32
2022-10-24T10:44:40.801Z,10.6
2022-10-24T10:48:40.464Z,11.35
2022-10-24T10:52:40.267Z,9.85
2022-10-24T10:56:40.360Z,9.88
2022-10-24T11:00:40.694Z,12.65
2022-10-24T11:04:40.414Z,20.52
2022-10-24T11:08:40.551Z,9.55
2022-10-24T11:12:40.065Z,13.25
2022-10-24T11:16:40.541Z,12
2022-10-24T11:20:41.138Z,14.77
2022-10-24T11:24:40.482Z,10.73
2022-10-24T11:28:40.418Z,14.93
2022-10-24T11:32:40.223Z,13.18
2022-10-24T11:36:41.046Z,6.55
2022-10-24T11:40:40.569Z,7.32
2022-10-24T11:44:40.465Z,13.52
2022-10-24T11:48:40.633Z,10.38
2022-10-24T11:52:40.028Z,9.43
2022-10-24T11:56:40.405Z,13.75
2022-10-24T12:00:40.929Z,10.23
2022-10-24T12:04:40.978Z,18.85
2022-10-24T12:08:41.095Z,7.47
2022-10-24T12:12:40.163Z,11.77
2022-10-24T12:16:41.040Z,15.63
2022-10-24T12:20:40.453Z,16.5
2022-10-24T12:24:40.443Z,9.15
2022-10-24T12:28:40.985Z,8.38
2022-10-24T12:32:40.480Z,9.18
2022-10-24T12:36:41.199Z,13
2022-10-24T12:40:40.455Z,10.88
2022-10-24T12:44:40.546Z,16.2
2022-10-24T12:48:40.599Z,15.25
2022-10-24T12:52:39.711Z,11.55
2022-10-24T12:56:43.491Z,14.65
2022-10-24T13:00:40.534Z,14.2
2022-10-24T13:04:40.498Z,17.77
2022-10-24T13:08:40.478Z,16.7
2022-10-24T13:12:40.406Z,14.5
2022-10-24T13:16:40.746Z,12.7
2022-10-24T13:20:40.524Z,16.15
2022-10-24T13:24:40.615Z,9.93
2022-10-24T13:28:40.408Z,16.85
2022-10-24T13:32:40.541Z,17.2
2022-10-24T13:36:39.460Z,9.43
2022-10-24T13:40:40.678Z,10.57
2022-10-24T13:44:40.468Z,8.32
2022-10-24T13:48:40.507Z,23.73
2022-10-24T13:52:40.500Z,12.7
2022-10-24T13:56:39.972Z,5.5
2022-10-24T14:00:40.705Z,7.7
2022-10-24T14:04:40.824Z,10.95
2022-10-24T14:08:40.488Z,8.4
2022-10-24T14:12:40.538Z,7.18
2022-10-24T14:16:40.614Z,18.12
2022-10-24T14:20:40.601Z,9.55
2022-10-24T14:24:40.507Z,13.6
2022-10-24T14:28:40.648Z,6.62
2022-10-24T14:32:40.426Z,16.75
2022-10-24T14:36:40.829Z,6.15
2022-10-24T14:40:40.674Z,3.95
2022-10-24T14:44:40.502Z,8.52
2022-10-24T14:48:40.451Z,10.93
2022-10-24T14:52:40.469Z,7.22
2022-10-24T14:56:40.576Z,5.95
2022-10-24T15:00:40.729Z,6.97
2022-10-24T15:04:40.462Z,3.25
2022-10-24T15:12:40.732Z,2.47
2022-10-24T15:16:40.538Z,4.53
2022-10-24T15:20:40.671Z,3.22
2022-10-24T15:24:44.159Z,5.05
2022-10-24T15:28:40.511Z,2.15
2022-10-24T15:32:40.552Z,2.25
2022-10-24T15:36:39.518Z,5.82
2022-10-24T15:40:40.775Z,2.7
2022-10-24T15:44:40.513Z,3.83
2022-10-24T15:48:40.561Z,6.53
2022-10-24T15:52:40.462Z,4.4
2022-10-24T15:56:39.633Z,5.97
2022-10-24T16:00:40.719Z,15.2
2022-10-24T16:04:40.520Z,5.53
2022-10-24T16:08:40.459Z,2.42
2022-10-24T16:12:40.513Z,4.22
2022-10-24T16:16:40.567Z,2.28
2022-10-24T16:20:40.792Z,2.2
2022-10-24T16:24:40.485Z,4.78
2022-10-24T16:28:40.477Z,2.15
2022-10-24T16:32:40.320Z,2.6
2022-10-24T16:36:40.551Z,1.5
2022-10-24T16:44:40.467Z,3.7
2022-10-24T16:48:40.503Z,5.12
2022-10-24T16:52:40.525Z,14.23
2022-10-24T16:56:40.451Z,1.12
2022-10-24T17:00:40.673Z,1.6
2022-10-24T17:04:40.468Z,1.67
2022-10-24T17:08:40.627Z,1.9
2022-10-24T17:12:40.987Z,2.15
2022-10-24T17:16:40.661Z,3.25
2022-10-24T17:20:40.569Z,1.6
2022-10-24T17:24:40.524Z,1.73
2022-10-24T17:28:40.568Z,1.95
2022-10-24T17:32:40.485Z,6.22
2022-10-24T17:36:40.800Z,1.42
2022-10-24T17:40:40.518Z,9.18
2022-10-24T17:44:40.519Z,2.15
2022-10-24T17:48:40.489Z,2.58
2022-10-24T17:52:39.725Z,1.35
2022-10-24T17:56:39.354Z,2.92
2022-10-24T18:00:41.035Z,1.67
2022-10-24T18:04:40.532Z,2.55
2022-10-24T18:08:40.563Z,4.6
2022-10-24T18:12:40.633Z,2.12
2022-10-24T18:16:40.954Z,0.88
2022-10-24T18:20:40.629Z,5.28
2022-10-24T18:24:40.482Z,3.87
2022-10-24T18:28:40.452Z,2.17
2022-10-24T18:32:40.430Z,3.12
2022-10-24T18:36:40.572Z,3.62
2022-10-24T18:40:40.776Z,1.6
2022-10-24T18:44:40.295Z,5.22
2022-10-24T18:48:40.423Z,7.05
2022-10-24T18:52:40.504Z,1.7
2022-10-24T18:56:40.548Z,2.35
2022-10-24T19:00:40.559Z,4.22
2022-10-24T19:04:40.675Z,6.97
2022-10-24T19:08:40.824Z,5.07
2022-10-24T19:12:40.556Z,1.73
2022-10-24T19:16:40.440Z,7.25
2022-10-24T19:20:40.663Z,6.15
2022-10-24T19:24:40.508Z,9.38
2022-10-24T19:28:40.683Z,3.47
2022-10-24T19:32:40.668Z,2.72
2022-10-24T19:36:39.335Z,3.83
2022-10-24T19:40:40.578Z,1.5
2022-10-24T19:44:40.710Z,4.18
2022-10-24T19:48:40.894Z,3.78
2022-10-24T19:52:40.572Z,4.43
2022-10-24T19:56:40.500Z,3.67
2022-10-24T20:00:40.697Z,2.9
2022-10-24T20:04:40.315Z,8.13
2022-10-24T20:08:40.041Z,8.2
2022-10-24T20:12:41.008Z,5.97
2022-10-24T20:16:40.522Z,7.05
2022-10-24T20:20:40.583Z,8.18
2022-10-24T20:24:40.497Z,6.93
2022-10-24T20:28:40.584Z,3.75
2022-10-24T20:32:40.433Z,4.8
2022-10-24T20:36:40.434Z,7.95
2022-10-24T20:40:40.475Z,6.32
2022-10-24T20:44:40.484Z,7.93
2022-10-24T20:48:40.563Z,6.85
2022-10-24T20:52:40.451Z,9.48
2022-10-24T20:56:42.513Z,4.78
2022-10-24T21:04:40.685Z,5.93
2022-10-24T21:08:40.458Z,7.55
2022-10-24T21:12:43.917Z,9.45
2022-10-24T21:16:40.826Z,13.73
2022-10-24T21:20:40.569Z,10
2022-10-24T21:24:40.860Z,9.43
2022-10-24T21:28:40.455Z,5.65
2022-10-24T21:32:40.949Z,9.38
2022-10-24T21:36:40.519Z,6.95
2022-10-24T21:40:40.313Z,9.73
2022-10-24T21:44:40.343Z,10.63
2022-10-24T21:48:40.789Z,9.48
2022-10-24T21:52:40.540Z,7
2022-10-24T21:56:40.618Z,12.57
2022-10-24T22:00:40.493Z,6.4
2022-10-24T22:04:40.503Z,9.98
2022-10-24T22:08:40.581Z,8.4
2022-10-24T22:12:40.668Z,6.47
2022-10-24T22:16:40.602Z,11.5
2022-10-24T22:20:41.291Z,5.43
2022-10-24T22:24:40.527Z,8.52
2022-10-24T22:28:40.494Z,7.7
2022-10-24T22:32:40.420Z,7.4
2022-10-24T22:36:40.237Z,8.15
2022-10-24T22:40:40.531Z,13.73
2022-10-24T22:44:39.718Z,4.57
2022-10-24T22:48:40.289Z,11.4
2022-10-24T22:52:40.439Z,12.25
2022-10-24T22:56:40.989Z,11.07
2022-10-24T23:00:40.503Z,13.27
2022-10-24T23:04:40.260Z,18.85
2022-10-24T23:08:40.535Z,6.3
2022-10-24T23:12:40.558Z,13.5
2022-10-24T23:16:40.853Z,4.4
2022-10-24T23:20:40.459Z,9.98
2022-10-24T23:24:40.708Z,9.1
2022-10-24T23:28:40.601Z,9.13
2022-10-24T23:32:40.433Z,5.95
2022-10-24T23:36:40.476Z,13.95
2022-10-24T23:40:40.844Z,11.6
2022-10-24T23:44:40.510Z,7.25
2022-10-24T23:48:40.458Z,14.87
2022-10-24T23:52:40.504Z,9.27
2022-10-24T23:56:40.375Z,10.85
